sensor_id;sensor_type;location;lat;lon;timestamp;pressure;altitude;pressure_sealevel;temperature;humidity
75460;BME280;64039;53.060;9.342;2024-03-23T00:52:12;100449.03;;;6.19;100.00
75460;BME280;64039;53.060;9.342;2024-03-23T00:54:37;100447.03;;;6.10;100.00
75460;BME280;64039;53.060;9.342;2024-03-23T00:57:03;100444.97;;;6.00;100.00
75460;BME280;64039;53.060;9.342;2024-03-23T00:59:28;100441.09;;;5.89;100.00
75460;BME280;64039;53.060;9.342;2024-03-23T01:01:54;100444.09;;;6.00;100.00
75460;BME280;64039;53.060;9.342;2024-03-23T01:04:20;100439.09;;;6.04;100.00
75460;BME280;64039;53.060;9.342;2024-03-23T01:06:46;100430.84;;;6.16;100.00
75460;BME280;64039;53.060;9.342;2024-03-23T01:09:11;100421.53;;;5.95;100.00
75460;BME280;64039;53.060;9.342;2024-03-23T01:11:37;100426.00;;;6.00;100.00
75460;BME280;64039;53.060;9.342;2024-03-23T01:14:03;100431.25;;;6.03;100.00
75460;BME280;64039;53.060;9.342;2024-03-23T01:16:28;100432.69;;;5.94;100.00
75460;BME280;64039;53.060;9.342;2024-03-23T01:18:53;100434.91;;;5.83;100.00
75460;BME280;64039;53.060;9.342;2024-03-23T01:21:19;100424.56;;;5.83;100.00
75460;BME280;64039;53.060;9.342;2024-03-23T01:23:44;100419.28;;;5.80;100.00
75460;BME280;64039;53.060;9.342;2024-03-23T01:26:10;100421.50;;;5.70;100.00
75460;BME280;64039;53.060;9.342;2024-03-23T01:28:35;100419.97;;;5.75;100.00
75460;BME280;64039;53.060;9.342;2024-03-23T01:31:02;100424.78;;;5.90;100.00
75460;BME280;64039;53.060;9.342;2024-03-23T01:33:27;100424.38;;;5.77;100.00
75460;BME280;64039;53.060;9.342;2024-03-23T01:35:53;100416.25;;;5.66;100.00
75460;BME280;64039;53.060;9.342;2024-03-23T01:38:18;100422.28;;;5.67;100.00
75460;BME280;64039;53.060;9.342;2024-03-23T01:40:43;100406.50;;;5.59;100.00
75460;BME280;64039;53.060;9.342;2024-03-23T01:43:09;100398.41;;;5.48;100.00
75460;BME280;64039;53.060;9.342;2024-03-23T01:45:34;100388.06;;;5.73;100.00
75460;BME280;64039;53.060;9.342;2024-03-23T01:48:01;100381.75;;;5.64;100.00
75460;BME280;64039;53.060;9.342;2024-03-23T01:50:27;100385.84;;;5.59;100.00
75460;BME280;64039;53.060;9.342;2024-03-23T01:52:53;100376.75;;;5.69;100.00
75460;BME280;64039;53.060;9.342;2024-03-23T01:55:19;100376.47;;;5.61;100.00
75460;BME280;64039;53.060;9.342;2024-03-23T01:57:45;100363.38;;;5.55;100.00
75460;BME280;64039;53.060;9.342;2024-03-23T02:00:11;100360.00;;;5.58;100.00
75460;BME280;64039;53.060;9.342;2024-03-23T02:02:46;100356.47;;;5.56;100.00
75460;BME280;64039;53.060;9.342;2024-03-23T02:05:12;100352.38;;;5.61;100.00
75460;BME280;64039;53.060;9.342;2024-03-23T02:07:42;100350.66;;;5.61;100.00
75460;BME280;64039;53.060;9.342;2024-03-23T02:10:08;100355.66;;;5.57;100.00
75460;BME280;64039;53.060;9.342;2024-03-23T02:12:35;100358.03;;;5.50;100.00
75460;BME280;64039;53.060;9.342;2024-03-23T02:15:01;100350.41;;;5.54;100.00
75460;BME280;64039;53.060;9.342;2024-03-23T02:17:26;100353.38;;;5.40;100.00
75460;BME280;64039;53.060;9.342;2024-03-23T02:19:52;100347.03;;;5.30;100.00
75460;BME280;64039;53.060;9.342;2024-03-23T02:22:17;100347.44;;;5.43;100.00
75460;BME280;64039;53.060;9.342;2024-03-23T02:24:43;100344.34;;;5.53;100.00
75460;BME280;64039;53.060;9.342;2024-03-23T02:27:08;100348.50;;;5.48;100.00
75460;BME280;64039;53.060;9.342;2024-03-23T02:29:34;100349.03;;;5.39;100.00
75460;BME280;64039;53.060;9.342;2024-03-23T02:31:59;100340.09;;;5.29;100.00
75460;BME280;64039;53.060;9.342;2024-03-23T02:34:25;100340.00;;;5.26;100.00
75460;BME280;64039;53.060;9.342;2024-03-23T02:36:50;100344.53;;;5.33;100.00
75460;BME280;64039;53.060;9.342;2024-03-23T02:39:16;100354.09;;;5.36;100.00
75460;BME280;64039;53.060;9.342;2024-03-23T02:41:41;100352.41;;;5.37;100.00
75460;BME280;64039;53.060;9.342;2024-03-23T02:44:07;100346.25;;;5.33;100.00
75460;BME280;64039;53.060;9.342;2024-03-23T02:46:33;100328.22;;;5.34;100.00
75460;BME280;64039;53.060;9.342;2024-03-23T02:48:59;100333.22;;;5.30;100.00
75460;BME280;64039;53.060;9.342;2024-03-23T02:51:25;100319.66;;;5.35;100.00
75460;BME280;64039;53.060;9.342;2024-03-23T02:53:50;100324.81;;;5.35;100.00
75460;BME280;64039;53.060;9.342;2024-03-23T02:56:16;100321.94;;;5.52;100.00
75460;BME280;64039;53.060;9.342;2024-03-23T02:58:44;100319.03;;;5.43;100.00
75460;BME280;64039;53.060;9.342;2024-03-23T03:01:10;100312.34;;;5.22;100.00
75460;BME280;64039;53.060;9.342;2024-03-23T03:03:35;100312.69;;;5.33;100.00
75460;BME280;64039;53.060;9.342;2024-03-23T03:06:01;100318.69;;;5.32;100.00
75460;BME280;64039;53.060;9.342;2024-03-23T03:08:26;100305.75;;;5.30;100.00
75460;BME280;64039;53.060;9.342;2024-03-23T03:10:52;100309.13;;;5.29;100.00
75460;BME280;64039;53.060;9.342;2024-03-23T03:13:17;100307.22;;;5.24;100.00
75460;BME280;64039;53.060;9.342;2024-03-23T03:15:43;100301.50;;;5.32;100.00
75460;BME280;64039;53.060;9.342;2024-03-23T03:18:09;100299.78;;;5.33;100.00
75460;BME280;64039;53.060;9.342;2024-03-23T03:20:38;100302.38;;;5.33;100.00
75460;BME280;64039;53.060;9.342;2024-03-23T03:23:04;100301.59;;;5.35;100.00
75460;BME280;64039;53.060;9.342;2024-03-23T03:25:30;100293.78;;;5.32;100.00
75460;BME280;64039;53.060;9.342;2024-03-23T03:27:55;100283.84;;;5.19;100.00
75460;BME280;64039;53.060;9.342;2024-03-23T03:30:21;100279.66;;;5.23;100.00
75460;BME280;64039;53.060;9.342;2024-03-23T03:32:46;100294.69;;;5.34;100.00
75460;BME280;64039;53.060;9.342;2024-03-23T03:35:12;100294.44;;;5.27;100.00
75460;BME280;64039;53.060;9.342;2024-03-23T03:37:37;100286.72;;;5.28;100.00
75460;BME280;64039;53.060;9.342;2024-03-23T03:40:03;100288.38;;;5.26;100.00
75460;BME280;64039;53.060;9.342;2024-03-23T03:42:28;100285.28;;;5.37;100.00
75460;BME280;64039;53.060;9.342;2024-03-23T03:44:54;100281.94;;;5.39;100.00
75460;BME280;64039;53.060;9.342;2024-03-23T03:47:19;100282.34;;;5.26;100.00
75460;BME280;64039;53.060;9.342;2024-03-23T03:49:45;100276.53;;;5.31;100.00
75460;BME280;64039;53.060;9.342;2024-03-23T03:52:10;100264.78;;;5.15;100.00
75460;BME280;64039;53.060;9.342;2024-03-23T03:54:36;100264.13;;;5.21;100.00
75460;BME280;64039;53.060;9.342;2024-03-23T03:57:01;100253.63;;;5.15;100.00
75460;BME280;64039;53.060;9.342;2024-03-23T03:59:29;100242.88;;;5.28;100.00
75460;BME280;64039;53.060;9.342;2024-03-23T04:01:54;100238.50;;;5.26;100.00
75460;BME280;64039;53.060;9.342;2024-03-23T04:04:20;100234.81;;;5.19;100.00
75460;BME280;64039;53.060;9.342;2024-03-23T04:06:45;100252.22;;;5.25;100.00
75460;BME280;64039;53.060;9.342;2024-03-23T04:09:11;100249.50;;;5.22;100.00
75460;BME280;64039;53.060;9.342;2024-03-23T04:11:36;100253.97;;;5.26;100.00
75460;BME280;64039;53.060;9.342;2024-03-23T04:14:02;100243.53;;;5.23;100.00
75460;BME280;64039;53.060;9.342;2024-03-23T04:16:28;100255.81;;;5.30;100.00
75460;BME280;64039;53.060;9.342;2024-03-23T04:18:54;100256.28;;;5.18;100.00
75460;BME280;64039;53.060;9.342;2024-03-23T04:21:19;100265.78;;;5.19;100.00
75460;BME280;64039;53.060;9.342;2024-03-23T04:23:45;100255.22;;;5.11;100.00
75460;BME280;64039;53.060;9.342;2024-03-23T04:26:11;100241.22;;;5.04;100.00
75460;BME280;64039;53.060;9.342;2024-03-23T04:28:36;100240.94;;;4.97;100.00
75460;BME280;64039;53.060;9.342;2024-03-23T04:31:04;100238.53;;;5.01;100.00
75460;BME280;64039;53.060;9.342;2024-03-23T04:33:30;100221.75;;;4.88;100.00
75460;BME280;64039;53.060;9.342;2024-03-23T04:35:56;100232.22;;;4.93;100.00
75460;BME280;64039;53.060;9.342;2024-03-23T04:38:22;100238.47;;;5.00;100.00
75460;BME280;64039;53.060;9.342;2024-03-23T04:40:57;100236.84;;;5.02;100.00
75460;BME280;64039;53.060;9.342;2024-03-23T04:43:23;100259.47;;;5.11;100.00
75460;BME280;64039;53.060;9.342;2024-03-23T04:45:49;100264.75;;;5.14;100.00
75460;BME280;64039;53.060;9.342;2024-03-23T04:48:14;100260.47;;;5.14;100.00
75460;BME280;64039;53.060;9.342;2024-03-23T04:50:40;100257.38;;;5.25;100.00
75460;BME280;64039;53.060;9.342;2024-03-23T04:53:06;100232.75;;;5.09;100.00
75460;BME280;64039;53.060;9.342;2024-03-23T04:55:32;100236.72;;;5.25;100.00
75460;BME280;64039;53.060;9.342;2024-03-23T04:57:57;100234.63;;;5.13;100.00
75460;BME280;64039;53.060;9.342;2024-03-23T05:00:23;100233.69;;;5.11;100.00
75460;BME280;64039;53.060;9.342;2024-03-23T05:02:48;100235.28;;;5.07;100.00
75460;BME280;64039;53.060;9.342;2024-03-23T05:05:14;100242.09;;;5.05;100.00
75460;BME280;64039;53.060;9.342;2024-03-23T05:07:39;100237.81;;;5.06;100.00
75460;BME280;64039;53.060;9.342;2024-03-23T05:10:07;100232.34;;;4.96;100.00
75460;BME280;64039;53.060;9.342;2024-03-23T05:12:36;100228.00;;;4.95;100.00
75460;BME280;64039;53.060;9.342;2024-03-23T05:15:01;100214.66;;;4.83;100.00
75460;BME280;64039;53.060;9.342;2024-03-23T05:17:27;100206.69;;;4.75;100.00
75460;BME280;64039;53.060;9.342;2024-03-23T05:19:52;100209.16;;;4.98;100.00
75460;BME280;64039;53.060;9.342;2024-03-23T05:22:17;100209.25;;;4.99;100.00
75460;BME280;64039;53.060;9.342;2024-03-23T05:24:45;100198.03;;;4.99;100.00
75460;BME280;64039;53.060;9.342;2024-03-23T05:27:11;100189.47;;;5.00;100.00
75460;BME280;64039;53.060;9.342;2024-03-23T05:29:36;100191.06;;;4.96;100.00
75460;BME280;64039;53.060;9.342;2024-03-23T05:32:01;100200.06;;;5.08;100.00
75460;BME280;64039;53.060;9.342;2024-03-23T05:34:27;100198.06;;;5.00;100.00
75460;BME280;64039;53.060;9.342;2024-03-23T05:36:54;100206.72;;;5.01;100.00
75460;BME280;64039;53.060;9.342;2024-03-23T05:39:19;100196.69;;;5.10;100.00
75460;BME280;64039;53.060;9.342;2024-03-23T05:41:47;100198.81;;;4.96;100.00
75460;BME280;64039;53.060;9.342;2024-03-23T05:44:13;100195.34;;;4.96;100.00
75460;BME280;64039;53.060;9.342;2024-03-23T05:46:39;100193.63;;;4.95;100.00
75460;BME280;64039;53.060;9.342;2024-03-23T05:49:04;100188.34;;;4.92;100.00
75460;BME280;64039;53.060;9.342;2024-03-23T05:51:30;100190.09;;;4.93;100.00
75460;BME280;64039;53.060;9.342;2024-03-23T05:53:55;100187.56;;;4.94;100.00
75460;BME280;64039;53.060;9.342;2024-03-23T05:56:21;100187.75;;;5.00;100.00
75460;BME280;64039;53.060;9.342;2024-03-23T05:58:46;100187.72;;;4.99;100.00
75460;BME280;64039;53.060;9.342;2024-03-23T06:01:12;100190.97;;;4.93;100.00
75460;BME280;64039;53.060;9.342;2024-03-23T06:03:38;100194.78;;;5.04;100.00
75460;BME280;64039;53.060;9.342;2024-03-23T06:06:03;100191.53;;;4.84;100.00
75460;BME280;64039;53.060;9.342;2024-03-23T06:08:29;100197.00;;;4.94;100.00
75460;BME280;64039;53.060;9.342;2024-03-23T06:10:55;100192.06;;;4.76;100.00
75460;BME280;64039;53.060;9.342;2024-03-23T06:13:20;100189.66;;;4.80;100.00
75460;BME280;64039;53.060;9.342;2024-03-23T06:15:50;100190.13;;;4.94;100.00
75460;BME280;64039;53.060;9.342;2024-03-23T06:18:15;100189.44;;;4.98;100.00
75460;BME280;64039;53.060;9.342;2024-03-23T06:20:41;100187.25;;;4.85;100.00
75460;BME280;64039;53.060;9.342;2024-03-23T06:23:06;100188.69;;;5.02;100.00
75460;BME280;64039;53.060;9.342;2024-03-23T06:25:32;100185.44;;;4.82;100.00
75460;BME280;64039;53.060;9.342;2024-03-23T06:27:58;100189.13;;;4.89;100.00
75460;BME280;64039;53.060;9.342;2024-03-23T06:30:28;100195.44;;;4.99;100.00
75460;BME280;64039;53.060;9.342;2024-03-23T06:32:55;100195.28;;;4.94;100.00
75460;BME280;64039;53.060;9.342;2024-03-23T06:35:20;100194.19;;;4.87;100.00
75460;BME280;64039;53.060;9.342;2024-03-23T06:37:46;100185.41;;;4.81;100.00
75460;BME280;64039;53.060;9.342;2024-03-23T06:40:11;100184.25;;;4.72;100.00
75460;BME280;64039;53.060;9.342;2024-03-23T06:42:37;100179.03;;;4.71;100.00
75460;BME280;64039;53.060;9.342;2024-03-23T06:45:03;100180.31;;;4.84;100.00
75460;BME280;64039;53.060;9.342;2024-03-23T06:47:30;100178.38;;;4.77;100.00
75460;BME280;64039;53.060;9.342;2024-03-23T06:49:55;100173.22;;;4.77;100.00
75460;BME280;64039;53.060;9.342;2024-03-23T06:52:21;100177.91;;;4.88;100.00
75460;BME280;64039;53.060;9.342;2024-03-23T06:54:47;100170.28;;;4.92;100.00
75460;BME280;64039;53.060;9.342;2024-03-23T06:57:12;100174.81;;;4.99;100.00
75460;BME280;64039;53.060;9.342;2024-03-23T06:59:38;100174.13;;;5.03;100.00
75460;BME280;64039;53.060;9.342;2024-03-23T07:02:06;100181.41;;;5.16;100.00
75460;BME280;64039;53.060;9.342;2024-03-23T07:04:35;100173.41;;;5.09;100.00
75460;BME280;64039;53.060;9.342;2024-03-23T07:07:02;100173.81;;;5.21;100.00
75460;BME280;64039;53.060;9.342;2024-03-23T07:09:31;100186.09;;;5.28;100.00
75460;BME280;64039;53.060;9.342;2024-03-23T07:11:57;100187.06;;;5.32;100.00
75460;BME280;64039;53.060;9.342;2024-03-23T07:14:23;100184.78;;;5.41;100.00
75460;BME280;64039;53.060;9.342;2024-03-23T07:16:49;100180.38;;;5.37;100.00
75460;BME280;64039;53.060;9.342;2024-03-23T07:19:18;100185.19;;;5.54;100.00
75460;BME280;64039;53.060;9.342;2024-03-23T07:21:44;100179.31;;;5.59;100.00
75460;BME280;64039;53.060;9.342;2024-03-23T07:24:10;100186.16;;;5.57;100.00
75460;BME280;64039;53.060;9.342;2024-03-23T07:26:35;100184.34;;;5.55;100.00
75460;BME280;64039;53.060;9.342;2024-03-23T07:29:01;100181.69;;;5.80;100.00
75460;BME280;64039;53.060;9.342;2024-03-23T07:31:27;100187.13;;;5.90;100.00
75460;BME280;64039;53.060;9.342;2024-03-23T07:33:52;100182.75;;;5.87;100.00
75460;BME280;64039;53.060;9.342;2024-03-23T07:36:18;100176.91;;;5.93;100.00
75460;BME280;64039;53.060;9.342;2024-03-23T07:38:43;100178.59;;;5.92;100.00
75460;BME280;64039;53.060;9.342;2024-03-23T07:41:16;100174.66;;;6.04;100.00
75460;BME280;64039;53.060;9.342;2024-03-23T07:43:45;100176.59;;;6.11;100.00
75460;BME280;64039;53.060;9.342;2024-03-23T07:46:12;100182.94;;;6.22;100.00
75460;BME280;64039;53.060;9.342;2024-03-23T07:48:38;100184.59;;;6.20;100.00
75460;BME280;64039;53.060;9.342;2024-03-23T07:51:17;100179.72;;;6.29;100.00
75460;BME280;64039;53.060;9.342;2024-03-23T07:53:44;100176.41;;;6.35;100.00
75460;BME280;64039;53.060;9.342;2024-03-23T07:56:11;100186.72;;;6.66;100.00
75460;BME280;64039;53.060;9.342;2024-03-23T07:58:38;100172.59;;;6.53;100.00
75460;BME280;64039;53.060;9.342;2024-03-23T08:01:05;100177.06;;;6.58;100.00
75460;BME280;64039;53.060;9.342;2024-03-23T08:03:33;100175.06;;;6.82;100.00
75460;BME280;64039;53.060;9.342;2024-03-23T08:06:13;100165.44;;;6.76;100.00
75460;BME280;64039;53.060;9.342;2024-03-23T08:08:39;100172.69;;;6.89;100.00
75460;BME280;64039;53.060;9.342;2024-03-23T08:11:05;100171.06;;;6.93;100.00
75460;BME280;64039;53.060;9.342;2024-03-23T08:13:32;100171.03;;;6.91;100.00
75460;BME280;64039;53.060;9.342;2024-03-23T08:16:02;100177.53;;;7.11;100.00
75460;BME280;64039;53.060;9.342;2024-03-23T08:18:28;100164.81;;;7.20;100.00
75460;BME280;64039;53.060;9.342;2024-03-23T08:21:05;100169.19;;;7.22;100.00
75460;BME280;64039;53.060;9.342;2024-03-23T08:23:32;100160.59;;;7.23;100.00
75460;BME280;64039;53.060;9.342;2024-03-23T08:26:01;100161.22;;;7.15;100.00
75460;BME280;64039;53.060;9.342;2024-03-23T08:28:27;100159.47;;;7.14;100.00
75460;BME280;64039;53.060;9.342;2024-03-23T08:30:53;100180.25;;;7.17;100.00
75460;BME280;64039;53.060;9.342;2024-03-23T08:33:19;100160.03;;;7.02;100.00
75460;BME280;64039;53.060;9.342;2024-03-23T08:35:54;100161.38;;;6.86;100.00
75460;BME280;64039;53.060;9.342;2024-03-23T08:38:21;100158.25;;;6.98;100.00
75460;BME280;64039;53.060;9.342;2024-03-23T08:40:46;100158.50;;;7.08;100.00
75460;BME280;64039;53.060;9.342;2024-03-23T08:43:12;100164.22;;;7.30;100.00
75460;BME280;64039;53.060;9.342;2024-03-23T08:45:37;100162.56;;;7.34;100.00
75460;BME280;64039;53.060;9.342;2024-03-23T08:48:03;100177.31;;;7.01;100.00
75460;BME280;64039;53.060;9.342;2024-03-23T08:50:28;100175.16;;;6.85;100.00
75460;BME280;64039;53.060;9.342;2024-03-23T08:52:53;100175.44;;;6.97;100.00
75460;BME280;64039;53.060;9.342;2024-03-23T08:55:19;100165.50;;;7.13;100.00
75460;BME280;64039;53.060;9.342;2024-03-23T08:57:44;100162.47;;;7.29;100.00
75460;BME280;64039;53.060;9.342;2024-03-23T09:00:10;100157.69;;;7.11;100.00
75460;BME280;64039;53.060;9.342;2024-03-23T09:02:36;100160.72;;;7.30;100.00
75460;BME280;64039;53.060;9.342;2024-03-23T09:05:02;100152.00;;;7.24;100.00
75460;BME280;64039;53.060;9.342;2024-03-23T09:07:32;100156.03;;;7.51;100.00
75460;BME280;64039;53.060;9.342;2024-03-23T09:09:57;100150.97;;;7.56;100.00
75460;BME280;64039;53.060;9.342;2024-03-23T09:12:23;100148.69;;;7.30;100.00
75460;BME280;64039;53.060;9.342;2024-03-23T09:14:50;100150.13;;;7.19;100.00
75460;BME280;64039;53.060;9.342;2024-03-23T09:17:15;100153.69;;;7.24;100.00
75460;BME280;64039;53.060;9.342;2024-03-23T09:19:41;100156.44;;;7.30;100.00
75460;BME280;64039;53.060;9.342;2024-03-23T09:22:06;100150.56;;;7.37;100.00
75460;BME280;64039;53.060;9.342;2024-03-23T09:24:32;100155.09;;;7.48;100.00
75460;BME280;64039;53.060;9.342;2024-03-23T09:26:57;100150.59;;;7.39;100.00
75460;BME280;64039;53.060;9.342;2024-03-23T09:29:23;100156.22;;;7.58;100.00
75460;BME280;64039;53.060;9.342;2024-03-23T09:31:48;100151.06;;;7.61;100.00
75460;BME280;64039;53.060;9.342;2024-03-23T09:34:14;100159.88;;;7.67;100.00
75460;BME280;64039;53.060;9.342;2024-03-23T09:36:40;100146.69;;;7.57;100.00
75460;BME280;64039;53.060;9.342;2024-03-23T09:39:06;100145.91;;;7.61;100.00
75460;BME280;64039;53.060;9.342;2024-03-23T09:41:33;100152.72;;;7.57;99.96
75460;BME280;64039;53.060;9.342;2024-03-23T09:43:58;100132.06;;;7.59;100.00
75460;BME280;64039;53.060;9.342;2024-03-23T09:46:24;100142.69;;;7.71;98.76
75460;BME280;64039;53.060;9.342;2024-03-23T09:48:49;100134.81;;;7.66;95.25
75460;BME280;64039;53.060;9.342;2024-03-23T09:51:15;100134.03;;;7.70;94.82
75460;BME280;64039;53.060;9.342;2024-03-23T09:53:40;100133.25;;;7.75;90.80
75460;BME280;64039;53.060;9.342;2024-03-23T09:56:07;100134.03;;;7.70;93.05
75460;BME280;64039;53.060;9.342;2024-03-23T09:58:33;100122.75;;;8.10;91.76
75460;BME280;64039;53.060;9.342;2024-03-23T10:00:58;100123.59;;;8.52;92.47
75460;BME280;64039;53.060;9.342;2024-03-23T10:03:24;100121.06;;;8.56;91.61
75460;BME280;64039;53.060;9.342;2024-03-23T10:06:03;100125.47;;;8.60;87.07
75460;BME280;64039;53.060;9.342;2024-03-23T10:08:30;100124.03;;;8.30;86.92
75460;BME280;64039;53.060;9.342;2024-03-23T10:10:56;100126.84;;;8.43;89.15
75460;BME280;64039;53.060;9.342;2024-03-23T10:13:27;100114.34;;;8.22;85.49
75460;BME280;64039;53.060;9.342;2024-03-23T10:15:58;100113.78;;;8.37;86.60
75460;BME280;64039;53.060;9.342;2024-03-23T10:18:25;100129.38;;;7.95;85.05
75460;BME280;64039;53.060;9.342;2024-03-23T10:20:52;100115.69;;;8.01;87.08
75460;BME280;64039;53.060;9.342;2024-03-23T10:23:36;100133.56;;;7.90;88.74
75460;BME280;64039;53.060;9.342;2024-03-23T10:26:21;100132.94;;;8.00;92.43
75460;BME280;64039;53.060;9.342;2024-03-23T10:29:00;100125.69;;;7.84;95.14
75460;BME280;64039;53.060;9.342;2024-03-23T10:31:31;100134.41;;;7.89;96.09
75460;BME280;64039;53.060;9.342;2024-03-23T10:33:57;100128.03;;;7.71;96.21
75460;BME280;64039;53.060;9.342;2024-03-23T10:36:23;100127.75;;;8.45;95.93
75460;BME280;64039;53.060;9.342;2024-03-23T10:38:54;100122.47;;;8.39;96.77
75460;BME280;64039;53.060;9.342;2024-03-23T10:41:19;100121.22;;;8.65;95.37
75460;BME280;64039;53.060;9.342;2024-03-23T10:43:46;100124.22;;;8.87;92.76
75460;BME280;64039;53.060;9.342;2024-03-23T10:46:12;100119.44;;;9.13;93.60
75460;BME280;64039;53.060;9.342;2024-03-23T10:48:38;100120.19;;;9.05;93.03
75460;BME280;64039;53.060;9.342;2024-03-23T10:51:05;100114.38;;;9.21;91.40
75460;BME280;64039;53.060;9.342;2024-03-23T10:53:33;100126.47;;;9.21;89.33
75460;BME280;64039;53.060;9.342;2024-03-23T10:55:59;100122.31;;;8.78;94.03
75460;BME280;64039;53.060;9.342;2024-03-23T10:58:29;100114.50;;;8.29;88.13
75460;BME280;64039;53.060;9.342;2024-03-23T11:00:56;100114.66;;;8.85;87.00
75460;BME280;64039;53.060;9.342;2024-03-23T11:03:34;100114.59;;;8.80;81.81
75460;BME280;64039;53.060;9.342;2024-03-23T11:06:05;100106.75;;;8.78;81.70
75460;BME280;64039;53.060;9.342;2024-03-23T11:08:39;100109.66;;;8.97;82.84
75460;BME280;64039;53.060;9.342;2024-03-23T11:11:16;100110.75;;;8.59;83.04
75460;BME280;64039;53.060;9.342;2024-03-23T11:13:42;100125.56;;;8.67;85.33
75460;BME280;64039;53.060;9.342;2024-03-23T11:16:22;100111.06;;;8.76;89.12
75460;BME280;64039;53.060;9.342;2024-03-23T11:18:50;100114.41;;;8.71;87.18
75460;BME280;64039;53.060;9.342;2024-03-23T11:21:53;100095.84;;;8.98;86.34
75460;BME280;64039;53.060;9.342;2024-03-23T11:24:22;100103.44;;;9.44;85.13
75460;BME280;64039;53.060;9.342;2024-03-23T11:26:48;100094.88;;;9.50;82.38
75460;BME280;64039;53.060;9.342;2024-03-23T11:29:16;100104.16;;;9.32;82.92
75460;BME280;64039;53.060;9.342;2024-03-23T11:31:48;100091.91;;;8.68;84.92
75460;BME280;64039;53.060;9.342;2024-03-23T11:34:18;100099.44;;;8.56;84.73
75460;BME280;64039;53.060;9.342;2024-03-23T11:36:45;100101.28;;;8.61;88.46
75460;BME280;64039;53.060;9.342;2024-03-23T11:39:17;100094.38;;;8.62;87.22
75460;BME280;64039;53.060;9.342;2024-03-23T11:41:50;100092.88;;;8.29;86.58
75460;BME280;64039;53.060;9.342;2024-03-23T11:44:19;100085.16;;;8.32;84.69
75460;BME280;64039;53.060;9.342;2024-03-23T11:46:46;100090.25;;;8.27;84.66
75460;BME280;64039;53.060;9.342;2024-03-23T11:49:25;100077.09;;;8.16;77.33
75460;BME280;64039;53.060;9.342;2024-03-23T11:51:52;100089.22;;;8.17;78.49
75460;BME280;64039;53.060;9.342;2024-03-23T11:54:23;100077.50;;;8.40;76.19
75460;BME280;64039;53.060;9.342;2024-03-23T11:57:03;100078.94;;;8.22;78.26
75460;BME280;64039;53.060;9.342;2024-03-23T12:01:56;100068.34;;;8.11;80.84
75460;BME280;64039;53.060;9.342;2024-03-23T12:04:28;100071.66;;;8.04;79.00
75460;BME280;64039;53.060;9.342;2024-03-23T12:07:14;100067.41;;;8.54;82.50
75460;BME280;64039;53.060;9.342;2024-03-23T12:09:41;100079.97;;;8.79;77.03
75460;BME280;64039;53.060;9.342;2024-03-23T12:12:13;100080.19;;;8.95;76.38
75460;BME280;64039;53.060;9.342;2024-03-23T12:14:40;100092.16;;;8.85;74.58
75460;BME280;64039;53.060;9.342;2024-03-23T12:17:13;100090.00;;;8.61;76.64
75460;BME280;64039;53.060;9.342;2024-03-23T12:19:40;100078.78;;;9.14;76.63
75460;BME280;64039;53.060;9.342;2024-03-23T12:22:10;100077.50;;;8.87;72.95
75460;BME280;64039;53.060;9.342;2024-03-23T12:24:35;100073.31;;;8.46;73.79
75460;BME280;64039;53.060;9.342;2024-03-23T12:27:05;100078.25;;;8.32;75.69
75460;BME280;64039;53.060;9.342;2024-03-23T12:29:34;100058.59;;;8.45;76.92
75460;BME280;64039;53.060;9.342;2024-03-23T12:32:01;100072.75;;;8.61;76.98
75460;BME280;64039;53.060;9.342;2024-03-23T12:34:27;100061.75;;;8.76;76.41
75460;BME280;64039;53.060;9.342;2024-03-23T12:36:53;100065.22;;;8.78;73.40
75460;BME280;64039;53.060;9.342;2024-03-23T12:39:18;100057.66;;;8.92;73.12
75460;BME280;64039;53.060;9.342;2024-03-23T12:41:46;100060.78;;;9.26;74.34
75460;BME280;64039;53.060;9.342;2024-03-23T12:44:11;100066.28;;;9.50;70.93
75460;BME280;64039;53.060;9.342;2024-03-23T12:46:40;100061.50;;;9.82;71.50
75460;BME280;64039;53.060;9.342;2024-03-23T12:49:06;100077.91;;;9.78;69.12
75460;BME280;64039;53.060;9.342;2024-03-23T12:51:32;100074.88;;;9.42;69.67
75460;BME280;64039;53.060;9.342;2024-03-23T12:53:58;100109.25;;;8.72;74.54
75460;BME280;64039;53.060;9.342;2024-03-23T12:56:23;100164.00;;;6.87;94.98
75460;BME280;64039;53.060;9.342;2024-03-23T12:58:49;100181.19;;;5.36;100.00
75460;BME280;64039;53.060;9.342;2024-03-23T13:01:19;100180.84;;;4.25;100.00
75460;BME280;64039;53.060;9.342;2024-03-23T13:03:48;100194.78;;;3.83;100.00
75460;BME280;64039;53.060;9.342;2024-03-23T13:06:14;100181.22;;;3.66;100.00
75460;BME280;64039;53.060;9.342;2024-03-23T13:08:40;100182.00;;;3.64;100.00
75460;BME280;64039;53.060;9.342;2024-03-23T13:11:08;100188.22;;;3.69;100.00
75460;BME280;64039;53.060;9.342;2024-03-23T13:13:36;100198.75;;;3.75;100.00
75460;BME280;64039;53.060;9.342;2024-03-23T13:16:02;100202.91;;;3.94;100.00
75460;BME280;64039;53.060;9.342;2024-03-23T13:18:31;100195.41;;;3.77;100.00
75460;BME280;64039;53.060;9.342;2024-03-23T13:20:58;100187.25;;;4.12;100.00
75460;BME280;64039;53.060;9.342;2024-03-23T13:23:23;100184.84;;;4.17;100.00
75460;BME280;64039;53.060;9.342;2024-03-23T13:25:50;100181.00;;;4.30;100.00
75460;BME280;64039;53.060;9.342;2024-03-23T13:28:18;100167.66;;;4.64;100.00
75460;BME280;64039;53.060;9.342;2024-03-23T13:30:53;100154.09;;;4.70;100.00
75460;BME280;64039;53.060;9.342;2024-03-23T13:33:18;100151.88;;;5.07;100.00
75460;BME280;64039;53.060;9.342;2024-03-23T13:35:54;100150.34;;;5.13;100.00
75460;BME280;64039;53.060;9.342;2024-03-23T13:38:22;100144.59;;;4.95;100.00
75460;BME280;64039;53.060;9.342;2024-03-23T13:40:59;100138.41;;;5.17;100.00
75460;BME280;64039;53.060;9.342;2024-03-23T13:43:26;100142.16;;;5.54;100.00
75460;BME280;64039;53.060;9.342;2024-03-23T13:45:58;100136.25;;;5.87;100.00